This is the latest recevied weather packets stored in our database for station/object I8ZSE-10. If no packets are shown the sender has not sent any weather packets the latest 10 day(s).
| Time | Temp. | Humidity | Pressure | Rain* | Wind** | Luminosity | Snow |
|---|---|---|---|---|---|---|---|
| 1788585930 | 18.33° C | 56% | - | 0 mm | - | - | - |
| 1788585330 | 17.78° C | 59% | - | 0 mm | - | - | - |
| 1788584730 | 18.33° C | 58% | - | 0 mm | - | - | - |
| 1788584130 | 17.78° C | 58% | - | 0 mm | - | - | - |
| 1788583530 | 17.78° C | 59% | - | 0 mm | - | - | - |
| 1788582930 | 18.33° C | 59% | - | 0 mm | - | - | - |
| 1788582030 | 18.33° C | 58% | - | 0 mm | - | - | - |
| 1788581430 | 17.78° C | 59% | - | 0 mm | - | - | - |
| 1788580830 | 18.33° C | 58% | - | 0 mm | - | - | - |
| 1788580230 | 18.33° C | 58% | - | 0 mm | - | - | - |
| 1788579630 | 18.33° C | 58% | - | 0 mm | - | - | - |
| 1788579030 | 18.89° C | 57% | - | 0 mm | - | - | - |
| 1788578430 | 18.33° C | 59% | - | 0 mm | - | - | - |
| 1788577830 | 18.33° C | 59% | - | 0 mm | - | - | - |
| 1788577230 | 18.89° C | 56% | - | 0 mm | - | - | - |
| 1788576630 | 18.33° C | 59% | - | 0 mm | - | - | - |
| 1788576030 | 18.89° C | 57% | - | 0 mm | - | - | - |
| 1788575430 | 19.44° C | 55% | - | 0 mm | - | - | - |
| 1788574830 | 20° C | 54% | - | 0 mm | - | - | - |
| 1788574230 | 20° C | 55% | - | 0 mm | - | - | - |
| 1788573630 | 19.44° C | 57% | - | 0 mm | - | - | - |
| 1788573030 | 19.44° C | 57% | - | 0 mm | - | - | - |
| 1788572456 | 19.44° C | 55% | - | 0 mm | - | - | - |
| 1788571830 | 19.44° C | 57% | - | 0 mm | - | - | - |
| 1788571230 | 19.44° C | 57% | - | 0 mm | - | - | - |
* Rain latest hour (hover to see other rain measurements)
** Current wind speed in m/s (hover to see current wind gust speed)